sensor_id;sensor_type;location;lat;lon;timestamp;temperature;humidity
19348;DHT22;9810;52.480;9.806;2023-02-15T00:00:40;0.90;99.90
19348;DHT22;9810;52.480;9.806;2023-02-15T00:03:07;0.90;99.90
19348;DHT22;9810;52.480;9.806;2023-02-15T00:05:35;0.70;99.90
19348;DHT22;9810;52.480;9.806;2023-02-15T00:08:02;0.50;99.90
19348;DHT22;9810;52.480;9.806;2023-02-15T00:10:29;0.50;99.90
19348;DHT22;9810;52.480;9.806;2023-02-15T00:13:00;0.50;99.90
19348;DHT22;9810;52.480;9.806;2023-02-15T00:15:27;0.50;99.90
19348;DHT22;9810;52.480;9.806;2023-02-15T00:17:54;0.50;99.90
19348;DHT22;9810;52.480;9.806;2023-02-15T00:20:23;0.50;99.90
19348;DHT22;9810;52.480;9.806;2023-02-15T00:22:50;0.50;99.90
19348;DHT22;9810;52.480;9.806;2023-02-15T00:25:18;0.50;99.90
19348;DHT22;9810;52.480;9.806;2023-02-15T00:27:45;0.40;99.90
19348;DHT22;9810;52.480;9.806;2023-02-15T00:30:15;0.50;99.90
19348;DHT22;9810;52.480;9.806;2023-02-15T00:32:43;0.50;99.90
19348;DHT22;9810;52.480;9.806;2023-02-15T00:35:10;0.60;99.90
19348;DHT22;9810;52.480;9.806;2023-02-15T00:37:38;0.40;99.90
19348;DHT22;9810;52.480;9.806;2023-02-15T00:40:06;0.20;99.90
19348;DHT22;9810;52.480;9.806;2023-02-15T00:42:34;-0.10;99.90
19348;DHT22;9810;52.480;9.806;2023-02-15T00:45:01;-0.20;99.90
19348;DHT22;9810;52.480;9.806;2023-02-15T00:47:30;-0.30;99.90
19348;DHT22;9810;52.480;9.806;2023-02-15T00:49:57;-0.30;99.90
19348;DHT22;9810;52.480;9.806;2023-02-15T00:52:24;-0.20;99.90
19348;DHT22;9810;52.480;9.806;2023-02-15T00:54:52;-0.10;99.90
19348;DHT22;9810;52.480;9.806;2023-02-15T00:57:19;-0.20;99.90
19348;DHT22;9810;52.480;9.806;2023-02-15T00:59:47;-0.20;99.90
19348;DHT22;9810;52.480;9.806;2023-02-15T01:02:14;-0.40;99.90
19348;DHT22;9810;52.480;9.806;2023-02-15T01:04:43;-0.40;99.90
19348;DHT22;9810;52.480;9.806;2023-02-15T01:07:10;-0.60;99.90
19348;DHT22;9810;52.480;9.806;2023-02-15T01:09:37;-0.60;99.90
19348;DHT22;9810;52.480;9.806;2023-02-15T01:12:05;-0.60;99.90
19348;DHT22;9810;52.480;9.806;2023-02-15T01:14:34;-0.60;99.90
19348;DHT22;9810;52.480;9.806;2023-02-15T01:17:01;-0.40;99.90
19348;DHT22;9810;52.480;9.806;2023-02-15T01:19:28;-0.60;99.90
19348;DHT22;9810;52.480;9.806;2023-02-15T01:21:57;-0.50;99.90
19348;DHT22;9810;52.480;9.806;2023-02-15T01:24:24;-0.40;99.90
19348;DHT22;9810;52.480;9.806;2023-02-15T01:26:51;-0.30;99.90
19348;DHT22;9810;52.480;9.806;2023-02-15T01:29:18;-0.30;99.90
19348;DHT22;9810;52.480;9.806;2023-02-15T01:31:46;-0.40;99.90
19348;DHT22;9810;52.480;9.806;2023-02-15T01:34:13;-0.40;99.90
19348;DHT22;9810;52.480;9.806;2023-02-15T01:36:40;-0.20;99.90
19348;DHT22;9810;52.480;9.806;2023-02-15T01:39:09;-0.20;99.90
19348;DHT22;9810;52.480;9.806;2023-02-15T01:41:37;-0.20;99.90
19348;DHT22;9810;52.480;9.806;2023-02-15T01:47:05;-0.40;99.90
19348;DHT22;9810;52.480;9.806;2023-02-15T01:49:32;-0.50;99.90
19348;DHT22;9810;52.480;9.806;2023-02-15T01:52:00;-0.60;99.90
19348;DHT22;9810;52.480;9.806;2023-02-15T01:54:31;-0.60;99.90
19348;DHT22;9810;52.480;9.806;2023-02-15T01:57:03;-0.50;99.90
19348;DHT22;9810;52.480;9.806;2023-02-15T01:59:33;-0.60;99.90
19348;DHT22;9810;52.480;9.806;2023-02-15T02:02:02;-0.70;99.90
19348;DHT22;9810;52.480;9.806;2023-02-15T02:04:33;-0.80;99.90
19348;DHT22;9810;52.480;9.806;2023-02-15T02:07:02;-0.80;99.90
19348;DHT22;9810;52.480;9.806;2023-02-15T02:09:33;-0.80;99.90
19348;DHT22;9810;52.480;9.806;2023-02-15T02:12:01;-0.90;99.90
19348;DHT22;9810;52.480;9.806;2023-02-15T02:14:29;-0.70;99.90
19348;DHT22;9810;52.480;9.806;2023-02-15T02:17:02;-0.80;99.90
19348;DHT22;9810;52.480;9.806;2023-02-15T02:19:53;-0.70;99.90
19348;DHT22;9810;52.480;9.806;2023-02-15T02:22:45;-0.80;99.90
19348;DHT22;9810;52.480;9.806;2023-02-15T02:28:33;-0.60;99.90
19348;DHT22;9810;52.480;9.806;2023-02-15T02:31:37;-0.70;99.90
19348;DHT22;9810;52.480;9.806;2023-02-15T02:34:15;-0.70;99.90
19348;DHT22;9810;52.480;9.806;2023-02-15T02:36:49;-0.70;99.90
19348;DHT22;9810;52.480;9.806;2023-02-15T02:39:23;-0.60;99.90
19348;DHT22;9810;52.480;9.806;2023-02-15T02:41:58;-0.50;99.90
19348;DHT22;9810;52.480;9.806;2023-02-15T02:44:31;-0.70;99.90
19348;DHT22;9810;52.480;9.806;2023-02-15T02:47:05;-0.80;99.90
19348;DHT22;9810;52.480;9.806;2023-02-15T02:49:38;-0.70;99.90
19348;DHT22;9810;52.480;9.806;2023-02-15T02:52:31;-1.00;99.90
19348;DHT22;9810;52.480;9.806;2023-02-15T02:54:54;-1.00;99.90
19348;DHT22;9810;52.480;9.806;2023-02-15T02:57:23;-1.30;99.90
19348;DHT22;9810;52.480;9.806;2023-02-15T02:59:51;-1.30;99.90
19348;DHT22;9810;52.480;9.806;2023-02-15T03:02:22;-1.20;99.90
19348;DHT22;9810;52.480;9.806;2023-02-15T03:04:57;-1.20;99.90
19348;DHT22;9810;52.480;9.806;2023-02-15T03:07:30;-1.40;99.90
19348;DHT22;9810;52.480;9.806;2023-02-15T03:10:00;-1.30;99.90
19348;DHT22;9810;52.480;9.806;2023-02-15T03:12:30;-1.50;99.90
19348;DHT22;9810;52.480;9.806;2023-02-15T03:15:01;-1.50;99.90
19348;DHT22;9810;52.480;9.806;2023-02-15T03:17:32;-1.40;99.90
19348;DHT22;9810;52.480;9.806;2023-02-15T03:20:04;-1.20;99.90
19348;DHT22;9810;52.480;9.806;2023-02-15T03:22:36;-1.30;99.90
19348;DHT22;9810;52.480;9.806;2023-02-15T03:25:08;-1.30;99.90
19348;DHT22;9810;52.480;9.806;2023-02-15T03:27:38;-1.30;99.90
19348;DHT22;9810;52.480;9.806;2023-02-15T03:30:08;-1.20;99.90
19348;DHT22;9810;52.480;9.806;2023-02-15T03:32:37;-1.50;99.90
19348;DHT22;9810;52.480;9.806;2023-02-15T03:35:08;-1.60;99.90
19348;DHT22;9810;52.480;9.806;2023-02-15T03:37:39;-1.70;99.90
19348;DHT22;9810;52.480;9.806;2023-02-15T03:40:10;-1.60;99.90
19348;DHT22;9810;52.480;9.806;2023-02-15T03:43:01;-1.40;99.90
19348;DHT22;9810;52.480;9.806;2023-02-15T03:45:31;-1.20;99.90
19348;DHT22;9810;52.480;9.806;2023-02-15T03:48:01;-1.30;99.90
19348;DHT22;9810;52.480;9.806;2023-02-15T03:50:32;-1.40;99.90
19348;DHT22;9810;52.480;9.806;2023-02-15T03:53:21;-1.30;99.90
19348;DHT22;9810;52.480;9.806;2023-02-15T03:55:53;-1.40;99.90
19348;DHT22;9810;52.480;9.806;2023-02-15T03:58:21;-1.40;99.90
19348;DHT22;9810;52.480;9.806;2023-02-15T04:01:10;-1.40;99.90
19348;DHT22;9810;52.480;9.806;2023-02-15T04:03:59;-1.30;99.90
19348;DHT22;9810;52.480;9.806;2023-02-15T04:06:29;-1.30;99.90
19348;DHT22;9810;52.480;9.806;2023-02-15T04:08:56;-1.40;99.90
19348;DHT22;9810;52.480;9.806;2023-02-15T04:11:40;-1.40;99.90
19348;DHT22;9810;52.480;9.806;2023-02-15T04:14:08;-1.40;99.90
19348;DHT22;9810;52.480;9.806;2023-02-15T04:16:48;-1.40;99.90
19348;DHT22;9810;52.480;9.806;2023-02-15T04:19:16;-1.30;99.90
19348;DHT22;9810;52.480;9.806;2023-02-15T04:22:02;-1.40;99.90
19348;DHT22;9810;52.480;9.806;2023-02-15T04:24:46;-1.50;99.90
19348;DHT22;9810;52.480;9.806;2023-02-15T04:27:31;-1.00;99.90
19348;DHT22;9810;52.480;9.806;2023-02-15T04:29:58;-1.00;99.90
19348;DHT22;9810;52.480;9.806;2023-02-15T04:32:25;-1.00;99.90
19348;DHT22;9810;52.480;9.806;2023-02-15T04:34:53;-1.00;99.90
19348;DHT22;9810;52.480;9.806;2023-02-15T04:37:22;-1.10;99.90
19348;DHT22;9810;52.480;9.806;2023-02-15T04:39:49;-1.40;99.90
19348;DHT22;9810;52.480;9.806;2023-02-15T04:42:17;-1.70;99.90
19348;DHT22;9810;52.480;9.806;2023-02-15T04:44:44;-1.90;99.90
19348;DHT22;9810;52.480;9.806;2023-02-15T04:47:12;-2.00;99.90
19348;DHT22;9810;52.480;9.806;2023-02-15T04:49:39;-2.00;99.90
19348;DHT22;9810;52.480;9.806;2023-02-15T04:52:06;-2.10;99.90
19348;DHT22;9810;52.480;9.806;2023-02-15T04:54:36;-2.00;99.90
19348;DHT22;9810;52.480;9.806;2023-02-15T04:57:03;-1.90;99.90
19348;DHT22;9810;52.480;9.806;2023-02-15T04:59:31;-1.90;99.90
19348;DHT22;9810;52.480;9.806;2023-02-15T05:01:58;-1.90;99.90
19348;DHT22;9810;52.480;9.806;2023-02-15T05:04:26;-2.20;99.90
19348;DHT22;9810;52.480;9.806;2023-02-15T05:06:53;-2.30;99.90
19348;DHT22;9810;52.480;9.806;2023-02-15T05:09:21;-2.30;99.90
19348;DHT22;9810;52.480;9.806;2023-02-15T05:11:49;-2.20;99.90
19348;DHT22;9810;52.480;9.806;2023-02-15T05:14:17;-2.20;99.90
19348;DHT22;9810;52.480;9.806;2023-02-15T05:16:44;-2.30;99.90
19348;DHT22;9810;52.480;9.806;2023-02-15T05:19:11;-2.10;99.90
19348;DHT22;9810;52.480;9.806;2023-02-15T05:21:38;-1.80;99.90
19348;DHT22;9810;52.480;9.806;2023-02-15T05:24:05;-1.60;99.90
19348;DHT22;9810;52.480;9.806;2023-02-15T05:26:55;-1.50;99.90
19348;DHT22;9810;52.480;9.806;2023-02-15T05:29:40;-1.50;99.90
19348;DHT22;9810;52.480;9.806;2023-02-15T05:32:13;-1.50;99.90
19348;DHT22;9810;52.480;9.806;2023-02-15T05:34:41;-1.50;99.90
19348;DHT22;9810;52.480;9.806;2023-02-15T05:37:08;-1.50;99.90
19348;DHT22;9810;52.480;9.806;2023-02-15T05:39:35;-1.50;99.90
19348;DHT22;9810;52.480;9.806;2023-02-15T05:42:04;-1.50;99.90
19348;DHT22;9810;52.480;9.806;2023-02-15T05:44:31;-1.40;99.90
19348;DHT22;9810;52.480;9.806;2023-02-15T05:46:59;-1.50;99.90
19348;DHT22;9810;52.480;9.806;2023-02-15T05:49:28;-1.70;99.90
19348;DHT22;9810;52.480;9.806;2023-02-15T05:51:56;-2.00;99.90
19348;DHT22;9810;52.480;9.806;2023-02-15T05:54:23;-2.00;99.90
19348;DHT22;9810;52.480;9.806;2023-02-15T05:56:50;-2.00;99.90
19348;DHT22;9810;52.480;9.806;2023-02-15T05:59:19;-1.80;99.90
19348;DHT22;9810;52.480;9.806;2023-02-15T06:01:47;-1.70;99.90
19348;DHT22;9810;52.480;9.806;2023-02-15T06:04:14;-2.00;99.90
19348;DHT22;9810;52.480;9.806;2023-02-15T06:06:41;-2.10;99.90
19348;DHT22;9810;52.480;9.806;2023-02-15T06:09:10;-2.00;99.90
19348;DHT22;9810;52.480;9.806;2023-02-15T06:11:37;-2.10;99.90
19348;DHT22;9810;52.480;9.806;2023-02-15T06:14:05;-2.40;99.90
19348;DHT22;9810;52.480;9.806;2023-02-15T06:16:34;-2.40;99.90
19348;DHT22;9810;52.480;9.806;2023-02-15T06:19:01;-2.40;99.90
19348;DHT22;9810;52.480;9.806;2023-02-15T06:21:29;-2.50;99.90
19348;DHT22;9810;52.480;9.806;2023-02-15T06:23:56;-2.50;99.90
19348;DHT22;9810;52.480;9.806;2023-02-15T06:26:24;-2.50;99.90
19348;DHT22;9810;52.480;9.806;2023-02-15T06:28:51;-2.30;99.90
19348;DHT22;9810;52.480;9.806;2023-02-15T06:31:19;-2.20;99.90
19348;DHT22;9810;52.480;9.806;2023-02-15T06:33:48;-2.30;99.90
19348;DHT22;9810;52.480;9.806;2023-02-15T06:36:15;-2.20;99.90
19348;DHT22;9810;52.480;9.806;2023-02-15T06:38:42;-2.10;99.90
19348;DHT22;9810;52.480;9.806;2023-02-15T06:41:10;-2.10;99.90
19348;DHT22;9810;52.480;9.806;2023-02-15T06:43:37;-2.10;99.90
19348;DHT22;9810;52.480;9.806;2023-02-15T06:46:04;-2.00;99.90
19348;DHT22;9810;52.480;9.806;2023-02-15T06:48:32;-2.00;99.90
19348;DHT22;9810;52.480;9.806;2023-02-15T06:51:00;-2.00;99.90
19348;DHT22;9810;52.480;9.806;2023-02-15T06:53:27;-2.00;99.90
19348;DHT22;9810;52.480;9.806;2023-02-15T06:56:00;-2.00;99.90
19348;DHT22;9810;52.480;9.806;2023-02-15T06:58:31;-2.00;99.90
19348;DHT22;9810;52.480;9.806;2023-02-15T07:00:59;-1.90;99.90
19348;DHT22;9810;52.480;9.806;2023-02-15T07:03:26;-1.90;99.90
19348;DHT22;9810;52.480;9.806;2023-02-15T07:05:54;-1.90;99.90
19348;DHT22;9810;52.480;9.806;2023-02-15T07:08:24;-1.90;99.90
19348;DHT22;9810;52.480;9.806;2023-02-15T07:10:53;-1.90;99.90
19348;DHT22;9810;52.480;9.806;2023-02-15T07:13:40;-1.90;99.90
19348;DHT22;9810;52.480;9.806;2023-02-15T07:16:08;-1.80;99.90
19348;DHT22;9810;52.480;9.806;2023-02-15T07:18:36;-1.80;99.90
19348;DHT22;9810;52.480;9.806;2023-02-15T07:21:03;-1.80;99.90
19348;DHT22;9810;52.480;9.806;2023-02-15T07:23:35;-1.80;99.90
19348;DHT22;9810;52.480;9.806;2023-02-15T07:26:03;-1.70;99.90
19348;DHT22;9810;52.480;9.806;2023-02-15T07:28:33;-1.70;99.90
19348;DHT22;9810;52.480;9.806;2023-02-15T07:31:01;-1.70;99.90
19348;DHT22;9810;52.480;9.806;2023-02-15T07:33:30;-1.60;99.90
19348;DHT22;9810;52.480;9.806;2023-02-15T07:35:59;-1.50;99.90
19348;DHT22;9810;52.480;9.806;2023-02-15T07:38:30;-1.30;99.90
19348;DHT22;9810;52.480;9.806;2023-02-15T07:41:00;-0.60;99.90
19348;DHT22;9810;52.480;9.806;2023-02-15T07:43:27;0.80;99.90
19348;DHT22;9810;52.480;9.806;2023-02-15T07:45:58;1.90;99.90
19348;DHT22;9810;52.480;9.806;2023-02-15T07:48:26;2.90;99.90
19348;DHT22;9810;52.480;9.806;2023-02-15T07:50:53;3.50;99.90
19348;DHT22;9810;52.480;9.806;2023-02-15T07:53:21;3.20;99.90
19348;DHT22;9810;52.480;9.806;2023-02-15T07:55:48;3.10;99.90
19348;DHT22;9810;52.480;9.806;2023-02-15T07:58:17;3.80;99.90
19348;DHT22;9810;52.480;9.806;2023-02-15T08:00:44;4.00;99.90
19348;DHT22;9810;52.480;9.806;2023-02-15T08:03:27;4.10;99.90
19348;DHT22;9810;52.480;9.806;2023-02-15T08:05:56;4.20;99.90
19348;DHT22;9810;52.480;9.806;2023-02-15T08:08:24;5.10;99.90
19348;DHT22;9810;52.480;9.806;2023-02-15T08:10:59;4.30;99.90
19348;DHT22;9810;52.480;9.806;2023-02-15T08:13:46;4.10;99.90
19348;DHT22;9810;52.480;9.806;2023-02-15T08:16:23;5.70;99.90
19348;DHT22;9810;52.480;9.806;2023-02-15T08:18:51;6.80;99.90
19348;DHT22;9810;52.480;9.806;2023-02-15T08:21:18;6.40;99.90
19348;DHT22;9810;52.480;9.806;2023-02-15T08:23:46;6.80;99.90
19348;DHT22;9810;52.480;9.806;2023-02-15T08:26:14;7.00;99.90
19348;DHT22;9810;52.480;9.806;2023-02-15T08:28:42;7.40;99.90
19348;DHT22;9810;52.480;9.806;2023-02-15T08:31:13;8.60;99.90
19348;DHT22;9810;52.480;9.806;2023-02-15T08:33:42;9.90;99.90
19348;DHT22;9810;52.480;9.806;2023-02-15T08:36:12;10.30;99.90
19348;DHT22;9810;52.480;9.806;2023-02-15T08:38:39;10.50;99.90
19348;DHT22;9810;52.480;9.806;2023-02-15T08:41:11;10.20;99.90
19348;DHT22;9810;52.480;9.806;2023-02-15T08:43:39;10.70;99.90
19348;DHT22;9810;52.480;9.806;2023-02-15T08:46:08;11.10;99.90
19348;DHT22;9810;52.480;9.806;2023-02-15T08:48:37;11.20;99.90
19348;DHT22;9810;52.480;9.806;2023-02-15T08:51:06;11.80;99.90
19348;DHT22;9810;52.480;9.806;2023-02-15T08:53:34;12.20;99.90
19348;DHT22;9810;52.480;9.806;2023-02-15T08:56:00;12.30;99.90
19348;DHT22;9810;52.480;9.806;2023-02-15T08:58:28;12.40;99.90
19348;DHT22;9810;52.480;9.806;2023-02-15T09:00:57;12.90;99.90
19348;DHT22;9810;52.480;9.806;2023-02-15T09:03:24;12.90;99.90
19348;DHT22;9810;52.480;9.806;2023-02-15T09:05:58;12.90;99.90
19348;DHT22;9810;52.480;9.806;2023-02-15T09:08:26;13.30;99.90
19348;DHT22;9810;52.480;9.806;2023-02-15T09:10:53;13.70;99.90
19348;DHT22;9810;52.480;9.806;2023-02-15T09:13:21;14.40;99.90
19348;DHT22;9810;52.480;9.806;2023-02-15T09:15:48;14.60;99.90
19348;DHT22;9810;52.480;9.806;2023-02-15T09:18:15;14.70;99.90
19348;DHT22;9810;52.480;9.806;2023-02-15T09:20:43;15.10;99.90
19348;DHT22;9810;52.480;9.806;2023-02-15T09:23:12;14.90;99.90
19348;DHT22;9810;52.480;9.806;2023-02-15T09:25:41;14.90;99.90
19348;DHT22;9810;52.480;9.806;2023-02-15T09:28:08;14.90;99.90
19348;DHT22;9810;52.480;9.806;2023-02-15T09:30:35;13.50;99.90
19348;DHT22;9810;52.480;9.806;2023-02-15T09:33:02;13.80;99.90
19348;DHT22;9810;52.480;9.806;2023-02-15T09:35:30;15.00;99.90
19348;DHT22;9810;52.480;9.806;2023-02-15T09:37:57;15.20;99.90
19348;DHT22;9810;52.480;9.806;2023-02-15T09:40:29;14.70;99.90
19348;DHT22;9810;52.480;9.806;2023-02-15T09:43:10;15.00;99.90
19348;DHT22;9810;52.480;9.806;2023-02-15T09:46:02;15.40;99.90
19348;DHT22;9810;52.480;9.806;2023-02-15T09:48:39;14.40;99.90
19348;DHT22;9810;52.480;9.806;2023-02-15T09:51:19;15.30;99.90
19348;DHT22;9810;52.480;9.806;2023-02-15T09:54:03;16.20;99.90
19348;DHT22;9810;52.480;9.806;2023-02-15T09:56:40;16.60;99.90
19348;DHT22;9810;52.480;9.806;2023-02-15T09:59:14;16.00;99.90
19348;DHT22;9810;52.480;9.806;2023-02-15T10:01:50;16.00;99.90
19348;DHT22;9810;52.480;9.806;2023-02-15T10:04:40;16.30;99.90
19348;DHT22;9810;52.480;9.806;2023-02-15T10:07:18;16.70;99.90
19348;DHT22;9810;52.480;9.806;2023-02-15T10:09:59;17.00;99.90
19348;DHT22;9810;52.480;9.806;2023-02-15T10:12:43;16.90;99.90
19348;DHT22;9810;52.480;9.806;2023-02-15T10:15:26;17.50;99.90
19348;DHT22;9810;52.480;9.806;2023-02-15T10:18:05;17.60;99.90
19348;DHT22;9810;52.480;9.806;2023-02-15T10:20:40;17.80;99.90
19348;DHT22;9810;52.480;9.806;2023-02-15T10:23:25;17.60;99.90
19348;DHT22;9810;52.480;9.806;2023-02-15T10:26:04;16.80;99.90
19348;DHT22;9810;52.480;9.806;2023-02-15T10:28:44;16.20;99.90
19348;DHT22;9810;52.480;9.806;2023-02-15T10:31:21;16.20;99.90
19348;DHT22;9810;52.480;9.806;2023-02-15T10:34:09;16.80;99.90
19348;DHT22;9810;52.480;9.806;2023-02-15T10:36:53;17.00;99.90
19348;DHT22;9810;52.480;9.806;2023-02-15T10:39:32;17.60;99.90
19348;DHT22;9810;52.480;9.806;2023-02-15T10:42:06;17.80;99.90
19348;DHT22;9810;52.480;9.806;2023-02-15T10:44:54;17.20;99.90
19348;DHT22;9810;52.480;9.806;2023-02-15T10:47:45;17.50;99.90
19348;DHT22;9810;52.480;9.806;2023-02-15T10:50:30;16.90;99.90
19348;DHT22;9810;52.480;9.806;2023-02-15T10:53:18;15.90;99.90
19348;DHT22;9810;52.480;9.806;2023-02-15T10:55:55;16.60;99.90
19348;DHT22;9810;52.480;9.806;2023-02-15T10:58:33;15.70;99.90
19348;DHT22;9810;52.480;9.806;2023-02-15T11:01:10;15.60;99.90
19348;DHT22;9810;52.480;9.806;2023-02-15T11:03:52;15.50;99.90
19348;DHT22;9810;52.480;9.806;2023-02-15T11:06:26;16.00;99.90
19348;DHT22;9810;52.480;9.806;2023-02-15T11:08:56;15.60;99.90
19348;DHT22;9810;52.480;9.806;2023-02-15T11:11:28;15.80;99.90
19348;DHT22;9810;52.480;9.806;2023-02-15T11:13:59;16.10;99.90
19348;DHT22;9810;52.480;9.806;2023-02-15T11:16:32;16.30;99.90
19348;DHT22;9810;52.480;9.806;2023-02-15T11:19:06;16.60;99.90
19348;DHT22;9810;52.480;9.806;2023-02-15T11:21:38;16.80;99.90
19348;DHT22;9810;52.480;9.806;2023-02-15T11:24:10;16.90;99.90
19348;DHT22;9810;52.480;9.806;2023-02-15T11:26:42;17.30;99.90
19348;DHT22;9810;52.480;9.806;2023-02-15T11:29:13;17.40;99.90
19348;DHT22;9810;52.480;9.806;2023-02-15T11:31:50;16.40;99.90
19348;DHT22;9810;52.480;9.806;2023-02-15T11:34:23;15.40;99.90
19348;DHT22;9810;52.480;9.806;2023-02-15T11:36:55;15.60;99.90
19348;DHT22;9810;52.480;9.806;2023-02-15T11:39:26;15.70;99.90
19348;DHT22;9810;52.480;9.806;2023-02-15T11:41:57;16.10;99.90
19348;DHT22;9810;52.480;9.806;2023-02-15T11:44:29;16.00;99.90
19348;DHT22;9810;52.480;9.806;2023-02-15T11:47:00;15.90;99.90
19348;DHT22;9810;52.480;9.806;2023-02-15T11:49:30;16.40;99.90
19348;DHT22;9810;52.480;9.806;2023-02-15T11:52:00;16.80;99.90
19348;DHT22;9810;52.480;9.806;2023-02-15T11:54:31;16.40;99.90
19348;DHT22;9810;52.480;9.806;2023-02-15T11:57:06;16.10;99.90
19348;DHT22;9810;52.480;9.806;2023-02-15T11:59:40;15.90;99.90
19348;DHT22;9810;52.480;9.806;2023-02-15T12:02:16;15.70;99.90
19348;DHT22;9810;52.480;9.806;2023-02-15T12:04:48;15.70;99.90
19348;DHT22;9810;52.480;9.806;2023-02-15T12:07:20;15.70;99.90
19348;DHT22;9810;52.480;9.806;2023-02-15T12:09:55;15.60;99.90
19348;DHT22;9810;52.480;9.806;2023-02-15T12:12:25;15.70;99.90
19348;DHT22;9810;52.480;9.806;2023-02-15T12:14:54;15.30;99.90
19348;DHT22;9810;52.480;9.806;2023-02-15T12:17:24;15.40;99.90
19348;DHT22;9810;52.480;9.806;2023-02-15T12:19:54;14.80;99.90
19348;DHT22;9810;52.480;9.806;2023-02-15T12:22:25;14.90;99.90
19348;DHT22;9810;52.480;9.806;2023-02-15T12:24:54;14.90;99.90
19348;DHT22;9810;52.480;9.806;2023-02-15T12:27:26;14.60;99.90
19348;DHT22;9810;52.480;9.806;2023-02-15T12:29:56;14.50;99.90
19348;DHT22;9810;52.480;9.806;2023-02-15T12:32:29;14.20;99.90
19348;DHT22;9810;52.480;9.806;2023-02-15T12:35:01;13.30;99.90
19348;DHT22;9810;52.480;9.806;2023-02-15T12:37:33;12.70;99.90
19348;DHT22;9810;52.480;9.806;2023-02-15T12:40:10;12.20;99.90
19348;DHT22;9810;52.480;9.806;2023-02-15T12:42:45;12.30;99.90
19348;DHT22;9810;52.480;9.806;2023-02-15T12:45:24;12.20;99.90
19348;DHT22;9810;52.480;9.806;2023-02-15T12:48:16;12.20;99.90
19348;DHT22;9810;52.480;9.806;2023-02-15T12:50:50;12.10;99.90
19348;DHT22;9810;52.480;9.806;2023-02-15T12:53:22;12.00;99.90
19348;DHT22;9810;52.480;9.806;2023-02-15T12:55:52;11.80;99.90
19348;DHT22;9810;52.480;9.806;2023-02-15T12:58:22;11.90;99.90
19348;DHT22;9810;52.480;9.806;2023-02-15T13:01:12;12.20;99.90
19348;DHT22;9810;52.480;9.806;2023-02-15T13:03:55;12.10;99.90
19348;DHT22;9810;52.480;9.806;2023-02-15T13:06:24;12.10;99.90
19348;DHT22;9810;52.480;9.806;2023-02-15T13:08:52;12.10;99.90
19348;DHT22;9810;52.480;9.806;2023-02-15T13:11:22;11.90;99.90
19348;DHT22;9810;52.480;9.806;2023-02-15T13:13:54;11.60;99.90
19348;DHT22;9810;52.480;9.806;2023-02-15T13:16:28;11.70;99.90
19348;DHT22;9810;52.480;9.806;2023-02-15T13:19:03;11.90;99.90
19348;DHT22;9810;52.480;9.806;2023-02-15T13:21:35;11.90;99.90
19348;DHT22;9810;52.480;9.806;2023-02-15T13:24:06;12.00;99.90
19348;DHT22;9810;52.480;9.806;2023-02-15T13:26:38;11.90;99.90
19348;DHT22;9810;52.480;9.806;2023-02-15T13:29:17;11.80;99.90
19348;DHT22;9810;52.480;9.806;2023-02-15T13:31:45;11.80;99.90
19348;DHT22;9810;52.480;9.806;2023-02-15T13:34:16;11.70;99.90
19348;DHT22;9810;52.480;9.806;2023-02-15T13:36:53;11.50;99.90
19348;DHT22;9810;52.480;9.806;2023-02-15T13:39:26;11.70;99.90
19348;DHT22;9810;52.480;9.806;2023-02-15T13:42:01;11.70;99.90
19348;DHT22;9810;52.480;9.806;2023-02-15T13:44:54;11.60;99.90
19348;DHT22;9810;52.480;9.806;2023-02-15T13:47:32;11.10;99.90
19348;DHT22;9810;52.480;9.806;2023-02-15T13:50:20;11.20;99.90
19348;DHT22;9810;52.480;9.806;2023-02-15T13:52:56;11.30;99.90
19348;DHT22;9810;52.480;9.806;2023-02-15T13:55:34;11.40;99.90
19348;DHT22;9810;52.480;9.806;2023-02-15T13:58:18;11.50;99.90
19348;DHT22;9810;52.480;9.806;2023-02-15T14:00:55;11.70;99.90
19348;DHT22;9810;52.480;9.806;2023-02-15T14:03:58;11.70;99.90
19348;DHT22;9810;52.480;9.806;2023-02-15T14:09:40;11.70;99.90
19348;DHT22;9810;52.480;9.806;2023-02-15T14:12:31;11.30;99.90
19348;DHT22;9810;52.480;9.806;2023-02-15T14:15:18;11.10;99.90
19348;DHT22;9810;52.480;9.806;2023-02-15T14:17:57;11.10;99.90
19348;DHT22;9810;52.480;9.806;2023-02-15T14:20:43;11.00;99.90
19348;DHT22;9810;52.480;9.806;2023-02-15T14:23:19;10.90;99.90
19348;DHT22;9810;52.480;9.806;2023-02-15T14:25:57;11.00;99.90
19348;DHT22;9810;52.480;9.806;2023-02-15T14:28:31;10.90;99.90
19348;DHT22;9810;52.480;9.806;2023-02-15T14:31:02;11.00;99.90
19348;DHT22;9810;52.480;9.806;2023-02-15T14:33:34;10.90;99.90
19348;DHT22;9810;52.480;9.806;2023-02-15T14:36:05;10.80;99.90
19348;DHT22;9810;52.480;9.806;2023-02-15T14:38:51;10.70;99.90
19348;DHT22;9810;52.480;9.806;2023-02-15T14:41:25;10.70;99.90
19348;DHT22;9810;52.480;9.806;2023-02-15T14:43:59;10.70;99.90
19348;DHT22;9810;52.480;9.806;2023-02-15T14:46:32;10.60;99.90
19348;DHT22;9810;52.480;9.806;2023-02-15T14:49:06;10.60;99.90
19348;DHT22;9810;52.480;9.806;2023-02-15T14:52:03;10.70;99.90
19348;DHT22;9810;52.480;9.806;2023-02-15T14:54:59;10.70;99.90
19348;DHT22;9810;52.480;9.806;2023-02-15T14:57:32;10.60;99.90
19348;DHT22;9810;52.480;9.806;2023-02-15T15:00:02;10.50;99.90
19348;DHT22;9810;52.480;9.806;2023-02-15T15:02:44;10.50;99.90
19348;DHT22;9810;52.480;9.806;2023-02-15T15:05:17;10.60;99.90
19348;DHT22;9810;52.480;9.806;2023-02-15T15:07:47;10.50;99.90
19348;DHT22;9810;52.480;9.806;2023-02-15T15:10:44;10.50;99.90
19348;DHT22;9810;52.480;9.806;2023-02-15T15:13:37;10.50;99.90
19348;DHT22;9810;52.480;9.806;2023-02-15T15:19:10;10.50;99.90
19348;DHT22;9810;52.480;9.806;2023-02-15T15:21:54;10.50;99.90
19348;DHT22;9810;52.480;9.806;2023-02-15T15:24:52;10.40;99.90
19348;DHT22;9810;52.480;9.806;2023-02-15T15:27:48;10.30;99.90
19348;DHT22;9810;52.480;9.806;2023-02-15T15:39:52;9.90;99.90
19348;DHT22;9810;52.480;9.806;2023-02-15T15:42:32;9.70;99.90
19348;DHT22;9810;52.480;9.806;2023-02-15T15:45:30;9.60;99.90
19348;DHT22;9810;52.480;9.806;2023-02-15T15:48:31;9.50;99.90
19348;DHT22;9810;52.480;9.806;2023-02-15T15:51:03;9.30;99.90
19348;DHT22;9810;52.480;9.806;2023-02-15T15:53:37;9.30;99.90
19348;DHT22;9810;52.480;9.806;2023-02-15T15:56:10;9.20;99.90
19348;DHT22;9810;52.480;9.806;2023-02-15T15:58:42;9.10;99.90
19348;DHT22;9810;52.480;9.806;2023-02-15T16:01:12;9.10;99.90
19348;DHT22;9810;52.480;9.806;2023-02-15T16:03:49;9.00;99.90
19348;DHT22;9810;52.480;9.806;2023-02-15T16:06:29;8.80;99.90
19348;DHT22;9810;52.480;9.806;2023-02-15T16:08:57;8.80;99.90
19348;DHT22;9810;52.480;9.806;2023-02-15T16:11:27;8.60;99.90
19348;DHT22;9810;52.480;9.806;2023-02-15T16:13:56;8.40;99.90
19348;DHT22;9810;52.480;9.806;2023-02-15T16:16:27;8.20;99.90
19348;DHT22;9810;52.480;9.806;2023-02-15T16:18:56;8.10;99.90
19348;DHT22;9810;52.480;9.806;2023-02-15T16:21:28;8.10;99.90
19348;DHT22;9810;52.480;9.806;2023-02-15T16:24:15;7.90;99.90
19348;DHT22;9810;52.480;9.806;2023-02-15T16:27:18;7.80;99.90
19348;DHT22;9810;52.480;9.806;2023-02-15T16:29:46;7.80;99.90
19348;DHT22;9810;52.480;9.806;2023-02-15T16:32:20;7.70;99.90
19348;DHT22;9810;52.480;9.806;2023-02-15T16:34:55;7.60;99.90
19348;DHT22;9810;52.480;9.806;2023-02-15T16:37:24;7.40;99.90
19348;DHT22;9810;52.480;9.806;2023-02-15T16:39:54;7.30;99.90
19348;DHT22;9810;52.480;9.806;2023-02-15T16:42:23;7.30;99.90
19348;DHT22;9810;52.480;9.806;2023-02-15T16:44:54;7.10;99.90
19348;DHT22;9810;52.480;9.806;2023-02-15T16:47:25;7.00;99.90